Impacts TAF Board
For situational awareness. Not to be used for flight planning purposes.
IDs:

KDCA - Washington/National, VA, US

Issued at 2332 UTC 18 Dec 2018
Updated at 2347 UTC 18 Dec 2018
Potential Impact None Slight Moderate High
Time2252Z 19/00Z 19/01Z 19/02Z 19/03Z 19/04Z 19/05Z 19/06Z 19/07Z 19/08Z 19/09Z 19/10Z 19/11Z 19/12Z>>
Type OBS PRVL PRVL PRVL PRVL PRVL PRVL PRVL PRVL PRVL PRVL PRVL PRVL PRVL
VIS 10 >6 >6 >6 >6 >6 >6 >6 >6 >6 >6 >6 >6 >6
CIG -- -- -- -- -- -- -- -- -- -- -- -- -- --
Cover CLR FEW FEW FEW FEW FEW FEW FEW FEW FEW FEW FEW FEW FEW
FltCat VFR VFR VFR VFR VFR VFR VFR VFR VFR VFR VFR VFR VFR VFR
WX -- -- -- -- -- -- -- -- -- -- -- -- -- --
WDir 270 VRB VRB VRB VRB VRB VRB VRB VRB VRB VRB VRB VRB VRB
WSpd 5 4 4 4 4 4 4 4 4 4 4 4 4 4
WGst -- -- -- -- -- -- -- -- -- -- -- -- -- --
Raw TAF
KDCA 182332Z 1900/2006 VRB04KT P6SM FEW250
  FM191700 19007KT P6SM SCT200
  FM200400 VRB03KT P6SM SCT250


Raw METAR
KDCA 182252Z 27005KT 10SM CLR 07/M07 A3019 RMK AO2 SLP221 T00671067
KDCA 182152Z 33010KT 10SM FEW250 07/M06 A3017 RMK AO2 SLP216 T00671061
KDCA 182052Z 32010KT 10SM FEW250 08/M07 A3016 RMK AO2 SLP213 T00781067 53005

METAR Board
Radar Display
Forecast Discussion
For situational awareness. Not to be used for flight planning purposes.